sensor_id;sensor_type;location;lat;lon;timestamp;P1;durP1;ratioP1;P2;durP2;ratioP2
29984;SDS011;17387;42.690;23.328;2022-09-09T00:04:04;18.15;;;13.73;;
29984;SDS011;17387;42.690;23.328;2022-09-09T00:06:42;20.67;;;13.85;;
29984;SDS011;17387;42.690;23.328;2022-09-09T00:09:12;16.90;;;13.98;;
29984;SDS011;17387;42.690;23.328;2022-09-09T00:11:43;16.38;;;12.98;;
29984;SDS011;17387;42.690;23.328;2022-09-09T00:16:41;18.00;;;12.63;;
29984;SDS011;17387;42.690;23.328;2022-09-09T00:22:21;20.08;;;14.52;;
29984;SDS011;17387;42.690;23.328;2022-09-09T00:24:46;16.92;;;13.45;;
29984;SDS011;17387;42.690;23.328;2022-09-09T00:29:57;16.30;;;13.32;;
29984;SDS011;17387;42.690;23.328;2022-09-09T00:32:37;17.55;;;13.52;;
29984;SDS011;17387;42.690;23.328;2022-09-09T00:35:12;17.50;;;14.18;;
29984;SDS011;17387;42.690;23.328;2022-09-09T00:37:58;15.98;;;14.07;;
29984;SDS011;17387;42.690;23.328;2022-09-09T00:46:05;16.77;;;12.50;;
29984;SDS011;17387;42.690;23.328;2022-09-09T00:51:48;16.77;;;13.45;;
29984;SDS011;17387;42.690;23.328;2022-09-09T00:57:29;19.95;;;14.05;;
29984;SDS011;17387;42.690;23.328;2022-09-09T01:04:59;18.48;;;14.52;;
29984;SDS011;17387;42.690;23.328;2022-09-09T01:07:30;20.85;;;14.73;;
29984;SDS011;17387;42.690;23.328;2022-09-09T01:09:57;23.30;;;15.57;;
29984;SDS011;17387;42.690;23.328;2022-09-09T01:15:03;19.60;;;14.77;;
29984;SDS011;17387;42.690;23.328;2022-09-09T01:17:52;20.95;;;15.02;;
29984;SDS011;17387;42.690;23.328;2022-09-09T01:20:27;19.67;;;16.58;;
29984;SDS011;17387;42.690;23.328;2022-09-09T01:23:15;17.20;;;15.40;;
29984;SDS011;17387;42.690;23.328;2022-09-09T01:28:42;19.02;;;14.93;;
29984;SDS011;17387;42.690;23.328;2022-09-09T01:31:18;19.77;;;16.88;;
29984;SDS011;17387;42.690;23.328;2022-09-09T01:33:51;25.13;;;15.82;;
29984;SDS011;17387;42.690;23.328;2022-09-09T01:36:23;16.77;;;14.90;;
29984;SDS011;17387;42.690;23.328;2022-09-09T01:38:55;23.10;;;15.57;;
29984;SDS011;17387;42.690;23.328;2022-09-09T01:41:20;19.67;;;15.52;;
29984;SDS011;17387;42.690;23.328;2022-09-09T01:43:46;19.15;;;15.40;;
29984;SDS011;17387;42.690;23.328;2022-09-09T01:46:12;17.67;;;15.23;;
29984;SDS011;17387;42.690;23.328;2022-09-09T01:48:38;23.15;;;14.82;;
29984;SDS011;17387;42.690;23.328;2022-09-09T01:51:05;17.90;;;14.95;;
29984;SDS011;17387;42.690;23.328;2022-09-09T01:53:32;18.98;;;15.18;;
29984;SDS011;17387;42.690;23.328;2022-09-09T01:56:10;16.48;;;14.57;;
29984;SDS011;17387;42.690;23.328;2022-09-09T02:03:58;21.00;;;14.40;;
29984;SDS011;17387;42.690;23.328;2022-09-09T02:06:31;21.10;;;14.77;;
29984;SDS011;17387;42.690;23.328;2022-09-09T02:09:00;17.63;;;14.07;;
29984;SDS011;17387;42.690;23.328;2022-09-09T02:11:30;18.52;;;15.23;;
29984;SDS011;17387;42.690;23.328;2022-09-09T02:14:01;19.13;;;14.40;;
29984;SDS011;17387;42.690;23.328;2022-09-09T02:16:33;22.55;;;15.68;;
29984;SDS011;17387;42.690;23.328;2022-09-09T02:19:26;19.95;;;14.60;;
29984;SDS011;17387;42.690;23.328;2022-09-09T02:22:01;19.52;;;14.38;;
29984;SDS011;17387;42.690;23.328;2022-09-09T02:24:29;17.35;;;14.98;;
29984;SDS011;17387;42.690;23.328;2022-09-09T02:26:58;24.27;;;15.52;;
29984;SDS011;17387;42.690;23.328;2022-09-09T02:29:30;20.53;;;15.73;;
29984;SDS011;17387;42.690;23.328;2022-09-09T02:32:00;21.40;;;15.63;;
29984;SDS011;17387;42.690;23.328;2022-09-09T02:34:29;18.75;;;16.15;;
29984;SDS011;17387;42.690;23.328;2022-09-09T02:36:58;19.40;;;15.77;;
29984;SDS011;17387;42.690;23.328;2022-09-09T02:39:25;19.85;;;14.95;;
29984;SDS011;17387;42.690;23.328;2022-09-09T02:41:51;21.85;;;15.02;;
29984;SDS011;17387;42.690;23.328;2022-09-09T02:44:18;18.98;;;13.93;;
29984;SDS011;17387;42.690;23.328;2022-09-09T02:46:48;20.63;;;14.23;;
29984;SDS011;17387;42.690;23.328;2022-09-09T02:49:27;18.98;;;15.18;;
29984;SDS011;17387;42.690;23.328;2022-09-09T02:52:02;17.77;;;15.02;;
29984;SDS011;17387;42.690;23.328;2022-09-09T02:54:32;17.65;;;15.73;;
29984;SDS011;17387;42.690;23.328;2022-09-09T02:57:06;18.55;;;15.07;;
29984;SDS011;17387;42.690;23.328;2022-09-09T02:59:35;19.00;;;15.75;;
29984;SDS011;17387;42.690;23.328;2022-09-09T03:02:02;21.35;;;16.08;;
29984;SDS011;17387;42.690;23.328;2022-09-09T03:04:28;18.85;;;16.35;;
29984;SDS011;17387;42.690;23.328;2022-09-09T03:06:55;19.20;;;16.60;;
29984;SDS011;17387;42.690;23.328;2022-09-09T03:09:20;19.77;;;16.33;;
29984;SDS011;17387;42.690;23.328;2022-09-09T03:11:46;19.42;;;15.88;;
29984;SDS011;17387;42.690;23.328;2022-09-09T03:14:12;18.17;;;15.93;;
29984;SDS011;17387;42.690;23.328;2022-09-09T03:16:37;19.33;;;16.23;;
29984;SDS011;17387;42.690;23.328;2022-09-09T03:19:02;19.00;;;16.67;;
29984;SDS011;17387;42.690;23.328;2022-09-09T03:21:28;20.80;;;17.00;;
29984;SDS011;17387;42.690;23.328;2022-09-09T03:23:54;20.15;;;16.63;;
29984;SDS011;17387;42.690;23.328;2022-09-09T03:26:19;21.38;;;16.30;;
29984;SDS011;17387;42.690;23.328;2022-09-09T03:28:45;22.67;;;17.38;;
29984;SDS011;17387;42.690;23.328;2022-09-09T03:31:10;19.65;;;17.55;;
29984;SDS011;17387;42.690;23.328;2022-09-09T03:33:36;18.25;;;16.30;;
29984;SDS011;17387;42.690;23.328;2022-09-09T03:36:03;21.25;;;17.15;;
29984;SDS011;17387;42.690;23.328;2022-09-09T03:38:29;20.65;;;17.27;;
29984;SDS011;17387;42.690;23.328;2022-09-09T03:40:56;21.75;;;16.15;;
29984;SDS011;17387;42.690;23.328;2022-09-09T03:43:26;22.97;;;16.60;;
29984;SDS011;17387;42.690;23.328;2022-09-09T03:45:53;18.50;;;16.42;;
29984;SDS011;17387;42.690;23.328;2022-09-09T03:48:22;23.38;;;17.50;;
29984;SDS011;17387;42.690;23.328;2022-09-09T03:50:48;25.50;;;18.08;;
29984;SDS011;17387;42.690;23.328;2022-09-09T03:53:16;21.75;;;17.65;;
29984;SDS011;17387;42.690;23.328;2022-09-09T03:55:47;19.55;;;17.50;;
29984;SDS011;17387;42.690;23.328;2022-09-09T03:58:15;23.88;;;17.95;;
29984;SDS011;17387;42.690;23.328;2022-09-09T04:00:43;23.25;;;17.23;;
29984;SDS011;17387;42.690;23.328;2022-09-09T04:03:21;19.90;;;17.55;;
29984;SDS011;17387;42.690;23.328;2022-09-09T04:05:49;23.63;;;17.67;;
29984;SDS011;17387;42.690;23.328;2022-09-09T04:08:16;19.80;;;17.27;;
29984;SDS011;17387;42.690;23.328;2022-09-09T04:10:41;20.38;;;17.10;;
29984;SDS011;17387;42.690;23.328;2022-09-09T04:13:07;20.20;;;17.33;;
29984;SDS011;17387;42.690;23.328;2022-09-09T04:15:32;23.98;;;17.92;;
29984;SDS011;17387;42.690;23.328;2022-09-09T04:18:00;24.67;;;18.02;;
29984;SDS011;17387;42.690;23.328;2022-09-09T04:20:26;22.05;;;17.85;;
29984;SDS011;17387;42.690;23.328;2022-09-09T04:22:51;29.67;;;17.80;;
29984;SDS011;17387;42.690;23.328;2022-09-09T04:25:16;23.27;;;17.23;;
29984;SDS011;17387;42.690;23.328;2022-09-09T04:27:42;27.90;;;17.80;;
29984;SDS011;17387;42.690;23.328;2022-09-09T04:30:08;25.23;;;17.70;;
29984;SDS011;17387;42.690;23.328;2022-09-09T04:32:34;23.45;;;18.13;;
29984;SDS011;17387;42.690;23.328;2022-09-09T04:35:00;24.85;;;19.67;;
29984;SDS011;17387;42.690;23.328;2022-09-09T04:37:26;47.63;;;33.90;;
29984;SDS011;17387;42.690;23.328;2022-09-09T04:39:51;37.50;;;28.30;;
29984;SDS011;17387;42.690;23.328;2022-09-09T04:42:16;26.73;;;19.30;;
29984;SDS011;17387;42.690;23.328;2022-09-09T04:44:44;25.38;;;18.08;;
29984;SDS011;17387;42.690;23.328;2022-09-09T04:47:09;22.60;;;18.25;;
29984;SDS011;17387;42.690;23.328;2022-09-09T04:49:35;21.77;;;17.83;;
29984;SDS011;17387;42.690;23.328;2022-09-09T04:52:02;22.55;;;18.33;;
29984;SDS011;17387;42.690;23.328;2022-09-09T04:54:28;23.88;;;19.23;;
29984;SDS011;17387;42.690;23.328;2022-09-09T04:56:54;26.77;;;19.90;;
29984;SDS011;17387;42.690;23.328;2022-09-09T04:59:20;29.60;;;21.05;;
29984;SDS011;17387;42.690;23.328;2022-09-09T05:01:47;25.98;;;18.77;;
29984;SDS011;17387;42.690;23.328;2022-09-09T05:04:13;28.30;;;18.35;;
29984;SDS011;17387;42.690;23.328;2022-09-09T05:06:40;23.50;;;15.80;;
29984;SDS011;17387;42.690;23.328;2022-09-09T05:09:05;23.85;;;16.30;;
29984;SDS011;17387;42.690;23.328;2022-09-09T05:11:32;22.35;;;17.40;;
29984;SDS011;17387;42.690;23.328;2022-09-09T05:13:59;22.50;;;16.95;;
29984;SDS011;17387;42.690;23.328;2022-09-09T05:16:24;23.23;;;18.00;;
29984;SDS011;17387;42.690;23.328;2022-09-09T05:18:51;25.38;;;17.58;;
29984;SDS011;17387;42.690;23.328;2022-09-09T05:21:16;25.55;;;17.10;;
29984;SDS011;17387;42.690;23.328;2022-09-09T05:23:44;21.50;;;16.45;;
29984;SDS011;17387;42.690;23.328;2022-09-09T05:26:14;21.80;;;16.40;;
29984;SDS011;17387;42.690;23.328;2022-09-09T05:28:41;24.88;;;16.90;;
29984;SDS011;17387;42.690;23.328;2022-09-09T05:31:07;21.10;;;16.60;;
29984;SDS011;17387;42.690;23.328;2022-09-09T05:33:36;25.58;;;17.35;;
29984;SDS011;17387;42.690;23.328;2022-09-09T05:36:06;22.23;;;15.95;;
29984;SDS011;17387;42.690;23.328;2022-09-09T05:38:38;23.25;;;16.50;;
29984;SDS011;17387;42.690;23.328;2022-09-09T05:41:04;21.15;;;16.02;;
29984;SDS011;17387;42.690;23.328;2022-09-09T05:43:30;23.48;;;16.83;;
29984;SDS011;17387;42.690;23.328;2022-09-09T05:48:44;21.48;;;16.38;;
29984;SDS011;17387;42.690;23.328;2022-09-09T05:51:16;27.08;;;16.55;;
29984;SDS011;17387;42.690;23.328;2022-09-09T05:53:44;21.60;;;16.85;;
29984;SDS011;17387;42.690;23.328;2022-09-09T05:56:11;25.13;;;16.00;;
29984;SDS011;17387;42.690;23.328;2022-09-09T05:58:41;20.15;;;13.63;;
29984;SDS011;17387;42.690;23.328;2022-09-09T06:01:14;27.73;;;14.90;;
29984;SDS011;17387;42.690;23.328;2022-09-09T06:03:40;29.77;;;15.63;;
29984;SDS011;17387;42.690;23.328;2022-09-09T06:06:10;20.83;;;14.88;;
29984;SDS011;17387;42.690;23.328;2022-09-09T06:08:38;22.00;;;16.85;;
29984;SDS011;17387;42.690;23.328;2022-09-09T06:11:09;20.45;;;15.55;;
29984;SDS011;17387;42.690;23.328;2022-09-09T06:13:36;22.85;;;15.40;;
29984;SDS011;17387;42.690;23.328;2022-09-09T06:16:05;17.60;;;13.38;;
29984;SDS011;17387;42.690;23.328;2022-09-09T06:18:37;19.88;;;13.10;;
29984;SDS011;17387;42.690;23.328;2022-09-09T06:21:04;23.15;;;14.57;;
29984;SDS011;17387;42.690;23.328;2022-09-09T06:23:32;19.10;;;13.27;;
29984;SDS011;17387;42.690;23.328;2022-09-09T06:26:01;18.52;;;13.23;;
29984;SDS011;17387;42.690;23.328;2022-09-09T06:28:31;19.95;;;13.30;;
29984;SDS011;17387;42.690;23.328;2022-09-09T06:30:58;26.80;;;11.77;;
29984;SDS011;17387;42.690;23.328;2022-09-09T06:33:32;30.40;;;11.60;;
29984;SDS011;17387;42.690;23.328;2022-09-09T06:36:04;21.70;;;12.10;;
29984;SDS011;17387;42.690;23.328;2022-09-09T06:38:30;24.05;;;12.02;;
29984;SDS011;17387;42.690;23.328;2022-09-09T06:40:57;17.60;;;9.40;;
29984;SDS011;17387;42.690;23.328;2022-09-09T06:43:25;15.10;;;9.45;;
29984;SDS011;17387;42.690;23.328;2022-09-09T06:48:24;16.83;;;9.77;;
29984;SDS011;17387;42.690;23.328;2022-09-09T06:50:51;15.05;;;9.88;;
29984;SDS011;17387;42.690;23.328;2022-09-09T06:53:25;14.48;;;9.27;;
29984;SDS011;17387;42.690;23.328;2022-09-09T06:55:51;11.38;;;8.70;;
29984;SDS011;17387;42.690;23.328;2022-09-09T06:58:16;14.15;;;8.68;;
29984;SDS011;17387;42.690;23.328;2022-09-09T07:00:42;10.45;;;8.93;;
29984;SDS011;17387;42.690;23.328;2022-09-09T07:03:07;18.15;;;13.05;;
29984;SDS011;17387;42.690;23.328;2022-09-09T07:05:34;15.82;;;11.05;;
29984;SDS011;17387;42.690;23.328;2022-09-09T07:08:00;13.07;;;9.57;;
29984;SDS011;17387;42.690;23.328;2022-09-09T07:10:25;12.20;;;8.63;;
29984;SDS011;17387;42.690;23.328;2022-09-09T07:12:51;13.30;;;8.65;;
29984;SDS011;17387;42.690;23.328;2022-09-09T07:15:20;11.95;;;7.32;;
29984;SDS011;17387;42.690;23.328;2022-09-09T07:17:46;37.22;;;17.67;;
29984;SDS011;17387;42.690;23.328;2022-09-09T07:20:13;11.82;;;7.88;;
29984;SDS011;17387;42.690;23.328;2022-09-09T07:22:39;12.85;;;8.65;;
29984;SDS011;17387;42.690;23.328;2022-09-09T07:25:06;12.80;;;8.38;;
29984;SDS011;17387;42.690;23.328;2022-09-09T07:27:32;7.63;;;6.80;;
29984;SDS011;17387;42.690;23.328;2022-09-09T07:29:57;8.70;;;6.60;;
29984;SDS011;17387;42.690;23.328;2022-09-09T07:32:23;13.57;;;7.22;;
29984;SDS011;17387;42.690;23.328;2022-09-09T07:34:50;13.90;;;7.40;;
29984;SDS011;17387;42.690;23.328;2022-09-09T07:37:16;10.57;;;7.22;;
29984;SDS011;17387;42.690;23.328;2022-09-09T07:39:42;10.18;;;6.60;;
29984;SDS011;17387;42.690;23.328;2022-09-09T07:42:07;8.10;;;7.20;;
29984;SDS011;17387;42.690;23.328;2022-09-09T07:44:36;12.07;;;7.13;;
29984;SDS011;17387;42.690;23.328;2022-09-09T07:47:04;10.52;;;6.70;;
29984;SDS011;17387;42.690;23.328;2022-09-09T07:49:29;10.50;;;7.20;;
29984;SDS011;17387;42.690;23.328;2022-09-09T07:51:55;18.45;;;9.60;;
29984;SDS011;17387;42.690;23.328;2022-09-09T07:54:20;13.38;;;7.60;;
29984;SDS011;17387;42.690;23.328;2022-09-09T07:56:48;10.93;;;7.32;;
29984;SDS011;17387;42.690;23.328;2022-09-09T07:59:14;9.82;;;6.85;;
29984;SDS011;17387;42.690;23.328;2022-09-09T08:01:44;10.88;;;7.35;;
29984;SDS011;17387;42.690;23.328;2022-09-09T08:04:18;16.17;;;8.23;;
29984;SDS011;17387;42.690;23.328;2022-09-09T08:06:47;19.77;;;8.63;;
29984;SDS011;17387;42.690;23.328;2022-09-09T08:09:20;14.20;;;6.93;;
29984;SDS011;17387;42.690;23.328;2022-09-09T08:11:49;7.55;;;6.35;;
29984;SDS011;17387;42.690;23.328;2022-09-09T08:14:15;8.18;;;6.57;;
29984;SDS011;17387;42.690;23.328;2022-09-09T08:16:45;11.73;;;6.90;;
29984;SDS011;17387;42.690;23.328;2022-09-09T08:19:13;10.90;;;6.78;;
29984;SDS011;17387;42.690;23.328;2022-09-09T08:21:42;11.38;;;7.10;;
29984;SDS011;17387;42.690;23.328;2022-09-09T08:24:09;13.45;;;6.47;;
29984;SDS011;17387;42.690;23.328;2022-09-09T08:26:37;15.25;;;11.48;;
29984;SDS011;17387;42.690;23.328;2022-09-09T08:29:06;11.95;;;7.90;;
29984;SDS011;17387;42.690;23.328;2022-09-09T08:31:37;18.92;;;9.95;;
29984;SDS011;17387;42.690;23.328;2022-09-09T08:36:31;11.57;;;7.50;;
29984;SDS011;17387;42.690;23.328;2022-09-09T08:38:59;10.00;;;6.68;;
29984;SDS011;17387;42.690;23.328;2022-09-09T08:47:00;10.07;;;6.63;;
29984;SDS011;17387;42.690;23.328;2022-09-09T08:57:49;11.45;;;6.80;;
29984;SDS011;17387;42.690;23.328;2022-09-09T09:00:17;13.45;;;6.35;;
29984;SDS011;17387;42.690;23.328;2022-09-09T09:02:48;20.08;;;10.73;;
29984;SDS011;17387;42.690;23.328;2022-09-09T09:10:57;19.48;;;7.45;;
29984;SDS011;17387;42.690;23.328;2022-09-09T09:13:37;11.02;;;7.25;;
29984;SDS011;17387;42.690;23.328;2022-09-09T09:16:20;17.58;;;8.77;;
29984;SDS011;17387;42.690;23.328;2022-09-09T09:19:03;28.30;;;14.15;;
29984;SDS011;17387;42.690;23.328;2022-09-09T09:21:43;14.02;;;8.48;;
29984;SDS011;17387;42.690;23.328;2022-09-09T09:26:57;10.98;;;7.32;;
29984;SDS011;17387;42.690;23.328;2022-09-09T09:29:26;18.20;;;8.82;;
29984;SDS011;17387;42.690;23.328;2022-09-09T09:31:52;13.68;;;7.45;;
29984;SDS011;17387;42.690;23.328;2022-09-09T09:34:20;12.45;;;7.10;;
29984;SDS011;17387;42.690;23.328;2022-09-09T09:36:53;11.40;;;6.85;;
29984;SDS011;17387;42.690;23.328;2022-09-09T09:41:48;11.57;;;7.88;;
29984;SDS011;17387;42.690;23.328;2022-09-09T09:44:27;9.70;;;7.78;;
29984;SDS011;17387;42.690;23.328;2022-09-09T09:49:59;13.57;;;8.25;;
29984;SDS011;17387;42.690;23.328;2022-09-09T09:52:28;14.23;;;7.50;;
29984;SDS011;17387;42.690;23.328;2022-09-09T09:54:56;11.85;;;6.30;;
29984;SDS011;17387;42.690;23.328;2022-09-09T09:57:25;13.15;;;6.60;;
29984;SDS011;17387;42.690;23.328;2022-09-09T10:02:47;15.57;;;8.73;;
29984;SDS011;17387;42.690;23.328;2022-09-09T10:07:42;12.45;;;7.82;;
29984;SDS011;17387;42.690;23.328;2022-09-09T10:10:15;14.45;;;7.95;;
29984;SDS011;17387;42.690;23.328;2022-09-09T10:29:50;14.57;;;11.10;;
29984;SDS011;17387;42.690;23.328;2022-09-09T10:32:37;11.48;;;7.63;;
29984;SDS011;17387;42.690;23.328;2022-09-09T10:40:41;17.27;;;7.82;;
29984;SDS011;17387;42.690;23.328;2022-09-09T10:43:39;10.30;;;7.80;;
29984;SDS011;17387;42.690;23.328;2022-09-09T10:52:04;13.55;;;8.40;;
29984;SDS011;17387;42.690;23.328;2022-09-09T10:57:28;14.10;;;9.27;;
29984;SDS011;17387;42.690;23.328;2022-09-09T11:00:20;14.43;;;9.20;;
29984;SDS011;17387;42.690;23.328;2022-09-09T11:02:51;15.65;;;8.48;;
29984;SDS011;17387;42.690;23.328;2022-09-09T11:13:15;16.35;;;9.60;;
29984;SDS011;17387;42.690;23.328;2022-09-09T11:15:52;15.57;;;9.23;;
29984;SDS011;17387;42.690;23.328;2022-09-09T11:18:24;16.77;;;9.30;;
29984;SDS011;17387;42.690;23.328;2022-09-09T11:20:56;13.43;;;9.10;;
29984;SDS011;17387;42.690;23.328;2022-09-09T11:26:07;14.70;;;9.50;;
29984;SDS011;17387;42.690;23.328;2022-09-09T11:29:01;14.00;;;8.55;;
29984;SDS011;17387;42.690;23.328;2022-09-09T11:31:53;19.83;;;9.65;;
29984;SDS011;17387;42.690;23.328;2022-09-09T11:39:52;21.52;;;9.63;;
29984;SDS011;17387;42.690;23.328;2022-09-09T11:42:20;21.27;;;8.88;;
29984;SDS011;17387;42.690;23.328;2022-09-09T11:44:48;19.40;;;9.10;;
29984;SDS011;17387;42.690;23.328;2022-09-09T11:47:19;10.95;;;8.20;;
29984;SDS011;17387;42.690;23.328;2022-09-09T11:49:49;15.93;;;9.57;;
29984;SDS011;17387;42.690;23.328;2022-09-09T11:52:21;16.50;;;9.85;;
29984;SDS011;17387;42.690;23.328;2022-09-09T11:55:08;15.40;;;8.52;;
29984;SDS011;17387;42.690;23.328;2022-09-09T11:57:38;18.40;;;11.27;;
29984;SDS011;17387;42.690;23.328;2022-09-09T12:00:04;22.15;;;9.57;;
29984;SDS011;17387;42.690;23.328;2022-09-09T12:02:31;18.70;;;9.82;;
29984;SDS011;17387;42.690;23.328;2022-09-09T12:05:06;17.83;;;9.27;;
29984;SDS011;17387;42.690;23.328;2022-09-09T12:07:57;14.35;;;8.57;;
29984;SDS011;17387;42.690;23.328;2022-09-09T12:10:29;19.60;;;8.50;;
29984;SDS011;17387;42.690;23.328;2022-09-09T12:15:49;23.23;;;13.27;;
29984;SDS011;17387;42.690;23.328;2022-09-09T12:18:26;14.82;;;8.75;;
29984;SDS011;17387;42.690;23.328;2022-09-09T12:21:07;18.65;;;9.75;;
29984;SDS011;17387;42.690;23.328;2022-09-09T12:23:52;19.77;;;13.13;;
29984;SDS011;17387;42.690;23.328;2022-09-09T12:36:52;17.25;;;9.20;;
29984;SDS011;17387;42.690;23.328;2022-09-09T12:39:28;18.02;;;9.68;;
29984;SDS011;17387;42.690;23.328;2022-09-09T12:41:56;15.48;;;10.15;;
29984;SDS011;17387;42.690;23.328;2022-09-09T12:44:22;20.48;;;11.02;;
29984;SDS011;17387;42.690;23.328;2022-09-09T12:46:49;21.85;;;10.30;;
29984;SDS011;17387;42.690;23.328;2022-09-09T12:49:35;13.02;;;9.60;;
29984;SDS011;17387;42.690;23.328;2022-09-09T12:52:05;15.50;;;9.20;;
29984;SDS011;17387;42.690;23.328;2022-09-09T12:54:34;20.27;;;10.43;;
29984;SDS011;17387;42.690;23.328;2022-09-09T12:57:01;17.42;;;9.63;;
29984;SDS011;17387;42.690;23.328;2022-09-09T12:59:38;22.02;;;11.07;;
29984;SDS011;17387;42.690;23.328;2022-09-09T13:05:05;14.98;;;9.18;;
29984;SDS011;17387;42.690;23.328;2022-09-09T13:07:37;24.85;;;10.50;;
29984;SDS011;17387;42.690;23.328;2022-09-09T13:10:03;19.95;;;10.32;;
29984;SDS011;17387;42.690;23.328;2022-09-09T13:12:29;15.82;;;9.25;;
29984;SDS011;17387;42.690;23.328;2022-09-09T13:14:55;14.35;;;9.23;;
29984;SDS011;17387;42.690;23.328;2022-09-09T13:17:23;13.48;;;9.32;;
29984;SDS011;17387;42.690;23.328;2022-09-09T13:19:51;14.18;;;8.35;;
29984;SDS011;17387;42.690;23.328;2022-09-09T13:27:36;13.60;;;6.93;;
29984;SDS011;17387;42.690;23.328;2022-09-09T13:33:00;13.27;;;7.07;;
29984;SDS011;17387;42.690;23.328;2022-09-09T13:35:34;16.63;;;8.35;;
29984;SDS011;17387;42.690;23.328;2022-09-09T13:38:12;13.00;;;7.63;;
29984;SDS011;17387;42.690;23.328;2022-09-09T13:40:39;15.88;;;9.40;;
29984;SDS011;17387;42.690;23.328;2022-09-09T13:43:05;14.10;;;9.65;;
29984;SDS011;17387;42.690;23.328;2022-09-09T13:45:40;18.20;;;9.52;;
29984;SDS011;17387;42.690;23.328;2022-09-09T13:48:09;22.52;;;9.00;;
29984;SDS011;17387;42.690;23.328;2022-09-09T13:50:35;15.48;;;8.93;;
29984;SDS011;17387;42.690;23.328;2022-09-09T13:53:01;22.95;;;9.93;;
29984;SDS011;17387;42.690;23.328;2022-09-09T13:55:26;14.73;;;9.50;;
29984;SDS011;17387;42.690;23.328;2022-09-09T13:57:55;24.48;;;10.52;;
29984;SDS011;17387;42.690;23.328;2022-09-09T14:00:21;14.65;;;8.73;;
29984;SDS011;17387;42.690;23.328;2022-09-09T14:02:48;13.70;;;8.85;;
29984;SDS011;17387;42.690;23.328;2022-09-09T14:05:14;14.73;;;8.68;;
29984;SDS011;17387;42.690;23.328;2022-09-09T14:07:41;17.27;;;9.45;;
29984;SDS011;17387;42.690;23.328;2022-09-09T14:10:07;21.20;;;9.27;;
29984;SDS011;17387;42.690;23.328;2022-09-09T14:12:33;17.05;;;8.45;;
29984;SDS011;17387;42.690;23.328;2022-09-09T14:14:58;18.13;;;9.80;;
29984;SDS011;17387;42.690;23.328;2022-09-09T14:17:26;16.17;;;9.20;;
29984;SDS011;17387;42.690;23.328;2022-09-09T14:19:54;16.70;;;10.90;;
29984;SDS011;17387;42.690;23.328;2022-09-09T14:22:21;16.25;;;9.85;;
29984;SDS011;17387;42.690;23.328;2022-09-09T14:24:47;17.65;;;9.73;;
29984;SDS011;17387;42.690;23.328;2022-09-09T14:27:12;17.48;;;10.35;;
29984;SDS011;17387;42.690;23.328;2022-09-09T14:29:37;27.15;;;10.57;;
29984;SDS011;17387;42.690;23.328;2022-09-09T14:32:03;14.93;;;10.20;;
29984;SDS011;17387;42.690;23.328;2022-09-09T14:34:29;15.90;;;8.82;;
29984;SDS011;17387;42.690;23.328;2022-09-09T14:36:54;22.30;;;13.73;;
29984;SDS011;17387;42.690;23.328;2022-09-09T14:39:20;30.70;;;10.40;;
29984;SDS011;17387;42.690;23.328;2022-09-09T14:41:45;16.13;;;9.75;;
29984;SDS011;17387;42.690;23.328;2022-09-09T14:44:10;13.20;;;10.25;;
29984;SDS011;17387;42.690;23.328;2022-09-09T14:46:36;20.38;;;8.75;;
29984;SDS011;17387;42.690;23.328;2022-09-09T14:49:02;16.67;;;9.43;;
29984;SDS011;17387;42.690;23.328;2022-09-09T14:51:27;16.95;;;9.85;;
29984;SDS011;17387;42.690;23.328;2022-09-09T14:53:57;28.23;;;16.83;;
29984;SDS011;17387;42.690;23.328;2022-09-09T14:58:55;18.33;;;9.23;;
29984;SDS011;17387;42.690;23.328;2022-09-09T15:01:21;22.33;;;11.40;;
29984;SDS011;17387;42.690;23.328;2022-09-09T15:03:51;20.30;;;11.43;;
29984;SDS011;17387;42.690;23.328;2022-09-09T15:06:20;26.48;;;11.32;;
29984;SDS011;17387;42.690;23.328;2022-09-09T15:08:47;19.60;;;9.18;;
29984;SDS011;17387;42.690;23.328;2022-09-09T15:11:14;18.10;;;9.40;;
29984;SDS011;17387;42.690;23.328;2022-09-09T15:13:40;22.58;;;10.68;;
29984;SDS011;17387;42.690;23.328;2022-09-09T15:16:08;20.63;;;11.48;;
29984;SDS011;17387;42.690;23.328;2022-09-09T15:18:36;19.85;;;9.70;;
29984;SDS011;17387;42.690;23.328;2022-09-09T15:21:04;12.73;;;9.40;;
29984;SDS011;17387;42.690;23.328;2022-09-09T15:23:33;20.13;;;10.27;;
29984;SDS011;17387;42.690;23.328;2022-09-09T15:25:59;16.48;;;10.40;;
29984;SDS011;17387;42.690;23.328;2022-09-09T15:28:25;18.05;;;10.02;;
29984;SDS011;17387;42.690;23.328;2022-09-09T15:30:51;21.60;;;10.32;;
29984;SDS011;17387;42.690;23.328;2022-09-09T15:33:18;18.85;;;10.68;;
29984;SDS011;17387;42.690;23.328;2022-09-09T15:35:44;25.23;;;13.52;;
29984;SDS011;17387;42.690;23.328;2022-09-09T15:38:10;22.85;;;10.95;;
29984;SDS011;17387;42.690;23.328;2022-09-09T15:40:38;24.67;;;12.63;;
29984;SDS011;17387;42.690;23.328;2022-09-09T15:43:04;32.03;;;13.02;;
29984;SDS011;17387;42.690;23.328;2022-09-09T15:45:31;22.58;;;13.00;;
29984;SDS011;17387;42.690;23.328;2022-09-09T15:47:57;25.20;;;12.65;;
29984;SDS011;17387;42.690;23.328;2022-09-09T15:50:23;25.17;;;15.48;;
29984;SDS011;17387;42.690;23.328;2022-09-09T15:52:48;27.88;;;14.48;;
29984;SDS011;17387;42.690;23.328;2022-09-09T15:55:13;22.58;;;13.43;;
29984;SDS011;17387;42.690;23.328;2022-09-09T15:57:39;28.55;;;13.27;;
29984;SDS011;17387;42.690;23.328;2022-09-09T16:00:05;33.10;;;13.43;;
29984;SDS011;17387;42.690;23.328;2022-09-09T16:02:31;29.45;;;13.77;;
29984;SDS011;17387;42.690;23.328;2022-09-09T16:04:58;25.48;;;14.43;;
29984;SDS011;17387;42.690;23.328;2022-09-09T16:07:23;22.83;;;13.60;;
29984;SDS011;17387;42.690;23.328;2022-09-09T16:09:48;48.35;;;29.08;;
29984;SDS011;17387;42.690;23.328;2022-09-09T16:12:16;23.02;;;12.90;;
29984;SDS011;17387;42.690;23.328;2022-09-09T16:14:42;19.90;;;12.43;;
29984;SDS011;17387;42.690;23.328;2022-09-09T16:17:07;24.30;;;13.35;;
29984;SDS011;17387;42.690;23.328;2022-09-09T16:19:33;28.30;;;14.38;;
29984;SDS011;17387;42.690;23.328;2022-09-09T16:21:59;28.10;;;17.63;;
29984;SDS011;17387;42.690;23.328;2022-09-09T16:24:26;31.63;;;17.48;;
29984;SDS011;17387;42.690;23.328;2022-09-09T16:26:52;32.10;;;16.40;;
29984;SDS011;17387;42.690;23.328;2022-09-09T16:29:19;31.38;;;16.85;;
29984;SDS011;17387;42.690;23.328;2022-09-09T16:31:46;39.22;;;19.20;;
29984;SDS011;17387;42.690;23.328;2022-09-09T16:34:13;35.60;;;20.70;;
29984;SDS011;17387;42.690;23.328;2022-09-09T16:36:40;42.60;;;21.23;;
29984;SDS011;17387;42.690;23.328;2022-09-09T16:39:11;26.98;;;14.38;;
29984;SDS011;17387;42.690;23.328;2022-09-09T16:44:05;31.05;;;17.95;;
29984;SDS011;17387;42.690;23.328;2022-09-09T16:46:33;35.70;;;22.52;;
29984;SDS011;17387;42.690;23.328;2022-09-09T16:49:01;33.22;;;16.73;;
29984;SDS011;17387;42.690;23.328;2022-09-09T16:51:29;45.17;;;19.73;;
29984;SDS011;17387;42.690;23.328;2022-09-09T16:54:00;36.85;;;18.35;;
29984;SDS011;17387;42.690;23.328;2022-09-09T16:56:27;35.00;;;15.63;;
29984;SDS011;17387;42.690;23.328;2022-09-09T16:58:58;37.15;;;19.63;;
29984;SDS011;17387;42.690;23.328;2022-09-09T17:01:25;30.38;;;17.13;;